createdAt,value
2022-09-26T00:00:36.264Z,12.14
2022-09-26T00:02:57.807Z,12.22
2022-09-26T00:05:19.319Z,12.13
2022-09-26T00:07:40.756Z,12.13
2022-09-26T00:10:02.353Z,12.12
2022-09-26T00:12:23.809Z,12.06
2022-09-26T00:14:45.286Z,11.97
2022-09-26T00:17:06.771Z,11.96
2022-09-26T00:19:28.233Z,11.94
2022-09-26T00:21:49.651Z,11.86
2022-09-26T00:24:11.777Z,11.84
2022-09-26T00:26:34.990Z,11.70
2022-09-26T00:28:57.704Z,11.68
2022-09-26T00:31:30.332Z,11.69
2022-09-26T00:33:52.032Z,11.71
2022-09-26T00:36:13.510Z,11.74
2022-09-26T00:38:35.684Z,11.74
2022-09-26T00:40:57.210Z,11.66
2022-09-26T00:43:33.376Z,11.55
2022-09-26T00:45:58.295Z,11.50
2022-09-26T00:48:19.841Z,11.48
2022-09-26T00:50:41.923Z,11.47
2022-09-26T00:53:12.881Z,11.41
2022-09-26T00:55:39.642Z,11.35
2022-09-26T00:58:08.903Z,11.26
2022-09-26T01:00:31.120Z,11.14
2022-09-26T01:02:53.607Z,11.17
2022-09-26T01:05:18.117Z,11.05
2022-09-26T01:07:39.957Z,10.93
2022-09-26T01:10:03.808Z,10.99
2022-09-26T01:12:25.319Z,10.94
2022-09-26T01:14:49.188Z,10.99
2022-09-26T01:17:11.574Z,10.97
2022-09-26T01:19:49.553Z,10.94
2022-09-26T01:22:58.164Z,10.77
2022-09-26T01:25:41.923Z,10.81
2022-09-26T01:28:34.628Z,10.78
2022-09-26T01:31:04.755Z,10.79
2022-09-26T01:33:47.593Z,10.59
2022-09-26T01:36:38.485Z,10.67
2022-09-26T01:39:18.117Z,10.69
2022-09-26T01:41:57.986Z,10.69
2022-09-26T01:44:20.099Z,10.64
2022-09-26T01:46:49.134Z,10.69
2022-09-26T01:49:43.277Z,10.57
2022-09-26T01:52:16.386Z,10.55
2022-09-26T01:54:44.774Z,10.45
2022-09-26T01:57:11.203Z,10.55
2022-09-26T01:59:39.495Z,10.48
2022-09-26T02:02:10.526Z,10.52
2022-09-26T02:04:39.476Z,10.46
2022-09-26T02:07:11.290Z,10.41
2022-09-26T02:09:42.613Z,10.34
2022-09-26T02:12:09.488Z,10.33
2022-09-26T02:14:36.512Z,10.39
2022-09-26T02:17:17.895Z,10.22
2022-09-26T02:19:56.808Z,10.33
2022-09-26T02:22:19.076Z,10.24
2022-09-26T02:24:40.558Z,10.23
2022-09-26T02:27:03.074Z,10.17
2022-09-26T02:29:24.638Z,10.17
2022-09-26T02:31:51.977Z,10.15
2022-09-26T02:34:13.454Z,10.12
2022-09-26T02:36:35.576Z,10.08
2022-09-26T02:38:57.016Z,10.00
2022-09-26T02:41:33.731Z,9.95
2022-09-26T02:44:12.675Z,9.98
2022-09-26T02:47:10.354Z,9.94
2022-09-26T02:49:59.129Z,9.93
2022-09-26T02:52:27.961Z,9.74
2022-09-26T02:55:06.481Z,9.67
2022-09-26T02:57:52.971Z,9.68
2022-09-26T03:00:25.411Z,9.72
2022-09-26T03:03:03.123Z,9.70
2022-09-26T03:05:29.718Z,9.55
2022-09-26T03:07:56.700Z,9.55
2022-09-26T03:10:19.622Z,9.61
2022-09-26T03:12:44.478Z,9.59
2022-09-26T03:15:07.500Z,9.43
2022-09-26T03:17:31.178Z,9.43
2022-09-26T03:19:58.080Z,9.52
2022-09-26T03:22:19.593Z,9.46
2022-09-26T03:24:42.663Z,9.48
2022-09-26T03:27:05.463Z,9.47
2022-09-26T03:29:26.949Z,9.41
2022-09-26T03:31:50.330Z,9.43
2022-09-26T03:34:12.439Z,9.39
2022-09-26T03:36:33.950Z,9.29
2022-09-26T03:38:55.417Z,9.40
2022-09-26T03:41:16.947Z,9.36
2022-09-26T03:43:39.056Z,9.34
2022-09-26T03:46:04.898Z,9.34
2022-09-26T03:48:26.701Z,9.36
2022-09-26T03:50:48.271Z,9.42
2022-09-26T03:53:09.736Z,9.22
2022-09-26T03:55:31.154Z,9.31
2022-09-26T03:57:52.607Z,9.27
2022-09-26T04:00:14.268Z,9.16
2022-09-26T04:02:35.969Z,9.11
2022-09-26T04:04:57.427Z,9.05
2022-09-26T04:07:18.883Z,9.13
2022-09-26T04:09:40.337Z,9.09
2022-09-26T04:12:01.870Z,9.18
2022-09-26T04:14:23.363Z,8.95
2022-09-26T04:16:44.848Z,9.09
2022-09-26T04:19:06.361Z,9.13
2022-09-26T04:21:28.604Z,8.92
2022-09-26T04:23:50.375Z,9.01
2022-09-26T04:26:20.212Z,8.90
2022-09-26T04:28:44.745Z,8.86
2022-09-26T04:31:07.824Z,8.95
2022-09-26T04:33:29.555Z,8.93
2022-09-26T04:35:51.115Z,8.79
2022-09-26T04:38:12.590Z,8.88
2022-09-26T04:40:35.717Z,8.88
2022-09-26T04:42:59.013Z,8.93
2022-09-26T04:45:20.456Z,8.93
2022-09-26T04:47:41.871Z,8.98
2022-09-26T04:50:03.464Z,9.00
2022-09-26T04:52:24.925Z,9.03
2022-09-26T04:54:46.355Z,8.99
2022-09-26T04:57:07.799Z,9.07
2022-09-26T04:59:29.217Z,9.07
2022-09-26T05:01:50.763Z,8.96
2022-09-26T05:04:12.443Z,8.89
2022-09-26T05:06:33.876Z,8.87
2022-09-26T05:08:55.353Z,8.99
2022-09-26T05:11:17.937Z,8.96
2022-09-26T05:13:39.514Z,8.90
2022-09-26T05:16:02.980Z,8.97
2022-09-26T05:18:25.374Z,9.05
2022-09-26T05:20:48.271Z,9.00
2022-09-26T05:23:10.334Z,8.92
2022-09-26T05:26:08.224Z,8.93
2022-09-26T05:28:29.649Z,9.06
2022-09-26T05:30:51.954Z,8.97
2022-09-26T05:33:13.389Z,8.68
2022-09-26T05:35:35.295Z,8.89
2022-09-26T05:38:01.198Z,9.04
2022-09-26T05:40:41.244Z,9.18
2022-09-26T05:43:03.466Z,9.22
2022-09-26T05:45:24.880Z,9.30
2022-09-26T05:47:48.654Z,9.20
2022-09-26T05:50:10.851Z,9.40
2022-09-26T05:52:32.266Z,9.10
2022-09-26T05:54:53.684Z,9.35
2022-09-26T05:57:15.253Z,9.50
2022-09-26T05:59:36.675Z,9.56
2022-09-26T06:01:58.635Z,9.64
2022-09-26T06:04:20.202Z,9.56
2022-09-26T06:06:42.418Z,9.77
2022-09-26T06:09:04.002Z,9.69
2022-09-26T06:11:30.754Z,9.87
2022-09-26T06:13:52.918Z,10.01
2022-09-26T06:16:18.523Z,9.98
2022-09-26T06:18:41.949Z,9.94
2022-09-26T06:21:04.952Z,10.18
2022-09-26T06:23:26.379Z,10.28
2022-09-26T06:25:47.823Z,10.31
2022-09-26T06:28:09.263Z,10.44
2022-09-26T06:30:31.000Z,10.50
2022-09-26T06:32:53.291Z,10.59
2022-09-26T06:35:15.016Z,10.68
2022-09-26T06:37:36.448Z,10.83
2022-09-26T06:39:59.521Z,10.74
2022-09-26T06:42:21.245Z,10.89
2022-09-26T06:44:42.663Z,11.14
2022-09-26T06:47:04.656Z,11.21
2022-09-26T06:49:27.268Z,11.36
2022-09-26T06:51:51.572Z,11.38
2022-09-26T06:54:12.984Z,11.63
2022-09-26T06:56:34.403Z,11.69
2022-09-26T06:58:55.837Z,11.68
2022-09-26T07:01:18.475Z,11.94
2022-09-26T07:03:45.179Z,12.09
2022-09-26T07:06:07.540Z,12.12
2022-09-26T07:08:57.337Z,12.38
2022-09-26T07:11:32.869Z,12.26
2022-09-26T07:13:53.069Z,12.29
2022-09-26T07:16:14.559Z,12.35
2022-09-26T07:18:37.964Z,12.26
2022-09-26T07:20:59.409Z,12.23
2022-09-26T07:23:20.951Z,12.26
2022-09-26T07:25:46.821Z,12.32
2022-09-26T07:28:10.264Z,12.55
2022-09-26T07:30:31.763Z,12.46
2022-09-26T07:32:53.208Z,12.72
2022-09-26T07:35:17.227Z,13.00
2022-09-26T07:37:38.647Z,12.92
2022-09-26T07:40:01.738Z,12.98
2022-09-26T07:42:23.645Z,13.32
2022-09-26T07:47:45.293Z,13.68
2022-09-26T07:50:16.631Z,13.33
2022-09-26T07:52:39.178Z,13.43
2022-09-26T07:55:00.623Z,13.65
2022-09-26T07:57:22.125Z,13.86
2022-09-26T07:59:43.565Z,13.97
2022-09-26T08:02:05.162Z,14.05
2022-09-26T08:04:28.315Z,14.42
2022-09-26T08:06:50.167Z,14.61
2022-09-26T08:09:11.821Z,14.88
2022-09-26T08:11:33.864Z,14.82
2022-09-26T08:13:55.432Z,14.72
2022-09-26T08:16:23.011Z,14.58
2022-09-26T08:18:44.797Z,14.68
2022-09-26T08:21:07.042Z,14.24
2022-09-26T08:23:29.422Z,14.14
2022-09-26T08:25:50.858Z,14.15
2022-09-26T08:28:12.948Z,14.15
2022-09-26T08:30:34.358Z,13.95
2022-09-26T08:32:59.067Z,14.03
2022-09-26T08:35:20.888Z,14.02
2022-09-26T08:37:42.316Z,14.01
2022-09-26T08:40:03.942Z,13.93
2022-09-26T08:42:54.258Z,14.09
2022-09-26T08:45:43.071Z,13.99
2022-09-26T08:48:33.262Z,13.82
2022-09-26T08:51:02.362Z,13.93
2022-09-26T08:53:40.620Z,13.88
2022-09-26T08:56:09.925Z,14.11
2022-09-26T08:58:40.663Z,14.06
2022-09-26T09:01:11.337Z,13.93
2022-09-26T09:03:54.693Z,13.88
2022-09-26T09:06:17.794Z,13.91
2022-09-26T09:08:43.179Z,14.03
2022-09-26T09:11:13.496Z,14.23
2022-09-26T09:13:37.969Z,14.42
2022-09-26T09:16:23.157Z,14.41
2022-09-26T09:19:11.953Z,14.33
2022-09-26T09:21:55.570Z,14.47
2022-09-26T09:24:28.618Z,14.51
2022-09-26T09:30:17.293Z,14.27
2022-09-26T09:32:51.640Z,14.74
2022-09-26T09:35:20.579Z,14.64
2022-09-26T09:37:48.853Z,15.11
2022-09-26T09:40:21.888Z,14.90
2022-09-26T09:42:48.127Z,14.79
2022-09-26T09:45:23.742Z,15.11
2022-09-26T09:47:45.732Z,14.89
2022-09-26T09:50:40.631Z,14.97
2022-09-26T09:53:45.373Z,15.27
2022-09-26T09:56:23.327Z,14.97
2022-09-26T09:58:53.085Z,14.95
2022-09-26T10:01:28.385Z,14.97
2022-09-26T10:04:01.361Z,15.13
2022-09-26T10:06:46.476Z,15.09
2022-09-26T10:09:35.280Z,15.20
2022-09-26T10:12:17.017Z,15.52
2022-09-26T10:14:46.325Z,15.17
2022-09-26T10:17:10.816Z,15.07
2022-09-26T10:19:39.075Z,15.03
2022-09-26T10:22:01.117Z,14.87
2022-09-26T10:24:40.823Z,14.84
2022-09-26T10:27:15.223Z,14.70
2022-09-26T10:29:38.358Z,14.62
2022-09-26T10:32:00.717Z,14.55
2022-09-26T10:34:30.279Z,14.81
2022-09-26T10:36:52.705Z,14.84
2022-09-26T10:39:39.730Z,15.28
2022-09-26T10:42:02.313Z,15.65
2022-09-26T10:44:34.950Z,15.80
2022-09-26T10:47:00.350Z,15.95
2022-09-26T10:49:26.961Z,16.14
2022-09-26T10:51:56.204Z,16.24
2022-09-26T10:54:26.738Z,16.28
2022-09-26T10:56:59.117Z,15.96
2022-09-26T10:59:27.258Z,15.96
2022-09-26T11:01:56.010Z,16.13
2022-09-26T11:04:52.234Z,15.88
2022-09-26T11:07:29.214Z,15.45
2022-09-26T11:09:52.567Z,15.61
2022-09-26T11:12:25.450Z,15.59
2022-09-26T11:14:47.011Z,15.74
2022-09-26T11:17:08.997Z,16.06
2022-09-26T11:19:53.794Z,16.11
2022-09-26T11:22:23.649Z,15.91
2022-09-26T11:24:52.674Z,15.86
2022-09-26T11:27:44.028Z,15.80
2022-09-26T11:30:20.803Z,15.74
2022-09-26T11:32:45.129Z,16.04
2022-09-26T11:35:34.225Z,16.55
2022-09-26T11:38:35.905Z,16.98
2022-09-26T11:41:39.089Z,17.08
2022-09-26T11:44:20.775Z,17.34
2022-09-26T11:47:27.454Z,17.35
2022-09-26T11:49:59.275Z,16.63
2022-09-26T11:52:49.557Z,16.35
2022-09-26T11:55:10.990Z,15.98
2022-09-26T11:57:55.138Z,15.78
2022-09-26T12:00:29.201Z,15.87
2022-09-26T12:03:13.939Z,16.01
2022-09-26T12:05:50.396Z,15.85
2022-09-26T12:08:30.268Z,15.75
2022-09-26T12:11:16.573Z,15.82
2022-09-26T12:13:47.247Z,16.04
2022-09-26T12:16:41.089Z,16.40
2022-09-26T12:19:15.579Z,16.88
2022-09-26T12:22:03.612Z,17.12
2022-09-26T12:24:35.923Z,17.33
2022-09-26T12:27:10.312Z,17.39
2022-09-26T12:29:40.660Z,17.70
2022-09-26T12:32:39.595Z,17.64
2022-09-26T12:35:44.014Z,17.50
2022-09-26T12:38:25.982Z,17.94
2022-09-26T12:41:04.321Z,18.07
2022-09-26T12:43:44.869Z,17.80
2022-09-26T12:46:27.435Z,17.73
2022-09-26T12:49:31.346Z,17.43
2022-09-26T12:51:58.196Z,17.55
2022-09-26T12:54:37.052Z,17.47
2022-09-26T12:57:22.900Z,17.36
2022-09-26T13:00:22.757Z,17.13
2022-09-26T13:03:35.492Z,16.83
2022-09-26T13:06:29.454Z,16.34
2022-09-26T13:09:07.241Z,15.94
2022-09-26T13:12:14.506Z,16.29
2022-09-26T13:14:55.202Z,16.33
2022-09-26T13:17:22.325Z,16.32
2022-09-26T13:19:55.775Z,16.43
2022-09-26T13:22:42.753Z,16.65
2022-09-26T13:25:37.329Z,16.50
2022-09-26T13:28:07.092Z,16.82
2022-09-26T13:30:36.139Z,16.64
2022-09-26T13:33:23.090Z,16.90
2022-09-26T13:35:47.367Z,16.94
2022-09-26T13:38:37.947Z,16.66
2022-09-26T13:41:26.822Z,16.34
2022-09-26T13:44:08.933Z,16.56
2022-09-26T13:47:00.142Z,16.49
2022-09-26T13:49:43.632Z,16.31
2022-09-26T13:52:15.134Z,16.16
2022-09-26T13:54:45.395Z,16.04
2022-09-26T13:57:31.826Z,16.26
2022-09-26T13:59:54.375Z,16.29
2022-09-26T14:02:29.218Z,16.33
2022-09-26T14:04:53.096Z,15.99
2022-09-26T14:07:35.907Z,16.29
2022-09-26T14:10:08.200Z,16.29
2022-09-26T14:13:05.947Z,16.72
2022-09-26T14:15:54.448Z,16.68
2022-09-26T14:18:28.232Z,16.96
2022-09-26T14:20:57.753Z,16.63
2022-09-26T14:23:38.174Z,16.76
2022-09-26T14:26:06.248Z,16.39
2022-09-26T14:28:36.154Z,16.15
2022-09-26T14:31:31.886Z,16.18
2022-09-26T14:34:17.529Z,16.23
2022-09-26T14:36:39.187Z,16.02
2022-09-26T14:39:02.543Z,16.12
2022-09-26T14:41:28.825Z,15.86
2022-09-26T14:43:51.768Z,16.05
2022-09-26T14:46:24.305Z,16.18
2022-09-26T14:48:46.306Z,16.01
2022-09-26T14:51:15.773Z,15.83
2022-09-26T14:54:02.452Z,15.70
2022-09-26T14:56:29.699Z,15.63
2022-09-26T14:58:51.830Z,15.48
2022-09-26T15:01:23.403Z,15.55
2022-09-26T15:04:08.385Z,15.55
2022-09-26T15:06:35.620Z,15.56
2022-09-26T15:09:01.727Z,15.48
2022-09-26T15:11:34.730Z,15.75
2022-09-26T15:13:56.685Z,15.45
2022-09-26T15:16:32.375Z,15.21
2022-09-26T15:19:03.168Z,15.54
2022-09-26T15:21:26.455Z,15.35
2022-09-26T15:23:53.490Z,15.17
2022-09-26T15:26:19.368Z,15.10
2022-09-26T15:28:40.869Z,14.89
2022-09-26T15:31:28.755Z,14.70
2022-09-26T15:34:02.286Z,14.54
2022-09-26T15:36:28.226Z,14.23
2022-09-26T15:38:49.854Z,14.45
2022-09-26T15:41:39.138Z,14.14
2022-09-26T15:44:01.303Z,14.16
2022-09-26T15:46:24.287Z,14.19
2022-09-26T15:48:45.811Z,14.35
2022-09-26T15:51:39.035Z,14.44
2022-09-26T15:54:07.401Z,14.36
2022-09-26T15:56:40.599Z,14.43
2022-09-26T15:59:13.561Z,14.39
2022-09-26T16:01:41.629Z,14.39
2022-09-26T16:04:13.461Z,14.36
2022-09-26T16:06:42.070Z,14.30
2022-09-26T16:09:09.708Z,14.48
2022-09-26T16:11:32.880Z,14.22
2022-09-26T16:13:56.663Z,14.47
2022-09-26T16:16:24.205Z,14.49
2022-09-26T16:18:52.660Z,14.45
2022-09-26T16:21:21.934Z,14.30
2022-09-26T16:23:49.714Z,14.48
2022-09-26T16:26:30.243Z,14.34
2022-09-26T16:28:55.114Z,14.45
2022-09-26T16:31:24.905Z,14.31
2022-09-26T16:33:51.272Z,14.41
2022-09-26T16:36:28.084Z,14.50
2022-09-26T16:39:01.077Z,14.60
2022-09-26T16:42:00.474Z,14.54
2022-09-26T16:44:35.911Z,14.43
2022-09-26T16:47:02.542Z,14.67
2022-09-26T16:49:45.770Z,14.53
2022-09-26T16:52:20.177Z,14.57
2022-09-26T16:54:41.845Z,14.51
2022-09-26T16:57:05.698Z,14.46
2022-09-26T16:59:29.030Z,14.28
2022-09-26T17:01:54.609Z,14.27
2022-09-26T17:04:18.873Z,14.40
2022-09-26T17:06:40.410Z,14.30
2022-09-26T17:09:12.110Z,14.28
2022-09-26T17:11:33.631Z,14.00
2022-09-26T17:13:55.151Z,14.11
2022-09-26T17:16:16.642Z,14.06
2022-09-26T17:18:38.317Z,13.98
2022-09-26T17:21:00.886Z,14.02
2022-09-26T17:23:39.471Z,14.04
2022-09-26T17:26:02.859Z,14.11
2022-09-26T17:28:37.875Z,14.31
2022-09-26T17:31:06.243Z,14.24
2022-09-26T17:33:29.557Z,14.05
2022-09-26T17:35:51.027Z,14.05
2022-09-26T17:38:13.971Z,14.14
2022-09-26T17:40:35.454Z,14.23
2022-09-26T17:42:59.738Z,14.07
2022-09-26T17:45:25.953Z,14.08
2022-09-26T17:47:47.598Z,14.09
2022-09-26T17:50:20.042Z,14.09
2022-09-26T17:52:41.613Z,13.99
2022-09-26T17:55:06.794Z,14.08
2022-09-26T17:57:30.303Z,14.08
2022-09-26T17:59:54.060Z,14.08
2022-09-26T18:02:31.399Z,14.10
2022-09-26T18:04:54.546Z,14.10
2022-09-26T18:07:16.290Z,14.06
2022-09-26T18:09:39.173Z,14.12
2022-09-26T18:12:04.027Z,14.08
2022-09-26T18:14:25.574Z,14.05
2022-09-26T18:16:47.015Z,13.95
2022-09-26T18:19:09.585Z,13.86
2022-09-26T18:21:30.997Z,13.77
2022-09-26T18:23:56.501Z,13.75
2022-09-26T18:26:28.055Z,13.84
2022-09-26T18:28:49.621Z,13.80
2022-09-26T18:31:11.437Z,13.74
2022-09-26T18:33:37.774Z,13.60
2022-09-26T18:35:59.548Z,13.54
2022-09-26T18:38:22.223Z,13.52
2022-09-26T18:40:50.350Z,13.71
2022-09-26T18:43:19.036Z,13.72
2022-09-26T18:45:40.538Z,13.64
2022-09-26T18:48:08.175Z,13.67
2022-09-26T18:50:36.580Z,13.66
2022-09-26T18:52:58.005Z,13.74
2022-09-26T18:55:41.723Z,13.73
2022-09-26T18:58:21.615Z,13.80
2022-09-26T19:00:43.311Z,13.80
2022-09-26T19:03:04.785Z,13.74
2022-09-26T19:05:26.278Z,13.58
2022-09-26T19:07:47.826Z,13.69
2022-09-26T19:10:15.425Z,13.61
2022-09-26T19:12:39.517Z,13.55
2022-09-26T19:15:00.962Z,13.56
2022-09-26T19:17:22.581Z,13.49
2022-09-26T19:19:44.049Z,13.59
2022-09-26T19:22:17.103Z,13.40
2022-09-26T19:24:46.571Z,13.47
2022-09-26T19:27:16.923Z,13.48
2022-09-26T19:30:04.909Z,13.49
2022-09-26T19:32:33.885Z,13.48
2022-09-26T19:34:59.148Z,13.38
2022-09-26T19:37:20.774Z,13.41
2022-09-26T19:39:42.256Z,13.26
2022-09-26T19:42:03.719Z,13.17
2022-09-26T19:44:25.201Z,13.22
2022-09-26T19:46:47.474Z,13.30
2022-09-26T19:49:16.190Z,13.15
2022-09-26T19:51:39.736Z,13.20
2022-09-26T19:54:05.936Z,13.19
2022-09-26T19:56:27.772Z,13.13
2022-09-26T19:58:50.518Z,13.08
2022-09-26T20:01:21.260Z,13.20
2022-09-26T20:03:44.816Z,13.30
2022-09-26T20:06:23.527Z,13.15
2022-09-26T20:08:45.081Z,13.32
2022-09-26T20:11:07.100Z,13.40
2022-09-26T20:13:48.496Z,13.18
2022-09-26T20:16:12.063Z,13.07
2022-09-26T20:18:33.542Z,13.07
2022-09-26T20:20:56.877Z,13.16
2022-09-26T20:23:22.390Z,13.21
2022-09-26T20:25:43.844Z,13.07
2022-09-26T20:28:05.313Z,13.03
2022-09-26T20:30:45.742Z,12.85
2022-09-26T20:33:08.812Z,12.52
2022-09-26T20:35:35.690Z,12.34
2022-09-26T20:38:03.009Z,12.19
2022-09-26T20:40:24.599Z,11.92
2022-09-26T20:42:50.635Z,11.60
2022-09-26T20:45:16.627Z,11.56
2022-09-26T20:47:40.403Z,11.61
2022-09-26T20:50:02.248Z,11.57
2022-09-26T20:52:26.313Z,11.58
2022-09-26T20:54:47.837Z,11.72
2022-09-26T20:57:09.315Z,11.72
2022-09-26T20:59:34.914Z,11.88
2022-09-26T21:01:57.582Z,11.82
2022-09-26T21:04:21.808Z,11.76
2022-09-26T21:06:44.062Z,11.81
2022-09-26T21:09:05.526Z,11.50
2022-09-26T21:11:27.055Z,11.44
2022-09-26T21:13:48.836Z,11.45
2022-09-26T21:16:15.211Z,11.28
2022-09-26T21:18:37.101Z,11.40
2022-09-26T21:21:05.781Z,11.34
2022-09-26T21:23:27.315Z,11.22
2022-09-26T21:25:48.829Z,11.26
2022-09-26T21:28:28.199Z,11.30
2022-09-26T21:30:49.980Z,11.51
2022-09-26T21:33:13.583Z,11.50
2022-09-26T21:35:35.026Z,11.40
2022-09-26T21:37:58.611Z,11.45
2022-09-26T21:40:22.828Z,11.44
2022-09-26T21:42:49.303Z,11.40
2022-09-26T21:45:11.900Z,11.24
2022-09-26T21:47:36.455Z,11.18
2022-09-26T21:49:58.083Z,11.28
2022-09-26T21:52:24.992Z,11.21
2022-09-26T21:54:46.741Z,11.17
2022-09-26T21:57:16.044Z,11.20
2022-09-26T21:59:39.382Z,11.15
2022-09-26T22:02:00.844Z,11.22
2022-09-26T22:04:22.524Z,11.45
2022-09-26T22:06:43.973Z,11.55
2022-09-26T22:09:05.487Z,11.54
2022-09-26T22:11:27.096Z,11.60
2022-09-26T22:13:48.541Z,11.45
2022-09-26T22:16:12.975Z,11.31
2022-09-26T22:18:35.317Z,11.37
2022-09-26T22:20:56.760Z,11.39
2022-09-26T22:23:18.677Z,11.50
2022-09-26T22:25:42.899Z,11.56
2022-09-26T22:28:04.550Z,11.69
2022-09-26T22:30:26.064Z,11.87
2022-09-26T22:32:47.519Z,11.56
2022-09-26T22:35:09.074Z,11.61
2022-09-26T22:37:30.708Z,11.63
2022-09-26T22:39:53.243Z,11.51
2022-09-26T22:42:14.815Z,11.60
2022-09-26T22:44:36.251Z,11.60
2022-09-26T22:46:57.677Z,11.56
2022-09-26T22:49:19.089Z,11.36
2022-09-26T22:51:41.129Z,11.34
2022-09-26T22:54:02.791Z,11.59
2022-09-26T22:56:24.283Z,11.46
2022-09-26T22:58:49.330Z,11.29
2022-09-26T23:01:13.531Z,11.49
2022-09-26T23:03:35.630Z,11.59
2022-09-26T23:05:57.058Z,11.66
2022-09-26T23:08:18.524Z,11.89
2022-09-26T23:10:39.951Z,11.84
2022-09-26T23:13:01.359Z,11.75
2022-09-26T23:15:22.810Z,11.78
2022-09-26T23:17:44.213Z,11.85
2022-09-26T23:20:06.572Z,11.80
2022-09-26T23:22:27.960Z,11.56
2022-09-26T23:24:49.380Z,11.56
2022-09-26T23:27:10.806Z,11.60
2022-09-26T23:29:32.537Z,11.70
2022-09-26T23:31:53.969Z,11.92
2022-09-26T23:34:15.383Z,11.69
2022-09-26T23:36:36.814Z,11.66
2022-09-26T23:38:58.607Z,11.80
2022-09-26T23:41:20.162Z,11.78
2022-09-26T23:43:41.873Z,11.60
2022-09-26T23:46:04.221Z,11.59
2022-09-26T23:48:25.713Z,11.47
2022-09-26T23:50:47.520Z,11.64
2022-09-26T23:53:08.926Z,11.60
2022-09-26T23:55:30.351Z,11.54
2022-09-26T23:57:51.830Z,11.45
